createdAt,value
2023-04-12T00:00:57.812Z,8.46
2023-04-12T00:03:54.526Z,8.34
2023-04-12T00:06:49.924Z,8.13
2023-04-12T00:09:45.493Z,8.23
2023-04-12T00:12:41.056Z,8.27
2023-04-12T00:15:37.646Z,8.26
2023-04-12T00:18:33.136Z,8.35
2023-04-12T00:21:29.727Z,8.35
2023-04-12T00:24:26.278Z,8.24
2023-04-12T00:27:21.850Z,8.25
2023-04-12T00:30:17.434Z,8.2
2023-04-12T00:33:14.945Z,8.16
2023-04-12T00:39:17.061Z,8.05
2023-04-12T00:42:12.630Z,7.99
2023-04-12T00:45:09.192Z,7.88
2023-04-12T00:48:07.734Z,7.83
2023-04-12T00:51:04.308Z,7.75
2023-04-12T00:54:00.819Z,7.82
2023-04-12T00:57:00.405Z,7.83
2023-04-12T00:59:55.964Z,7.75
2023-04-12T01:06:00.011Z,7.65
2023-04-12T01:09:03.630Z,7.61
2023-04-12T01:12:09.149Z,7.43
2023-04-12T01:15:09.654Z,7.3
2023-04-12T01:18:13.183Z,7.17
2023-04-12T01:21:18.775Z,7.17
2023-04-12T01:24:23.281Z,7.14
2023-04-12T01:27:29.829Z,7.14
2023-04-12T01:30:28.370Z,7.1
2023-04-12T01:33:30.930Z,7.02
2023-04-12T01:36:27.495Z,7.07
2023-04-12T01:39:24.022Z,7.01
2023-04-12T01:42:20.575Z,7.31
2023-04-12T01:45:16.160Z,7.06
2023-04-12T01:48:11.800Z,7.32
2023-04-12T01:51:18.263Z,7.46
2023-04-12T01:54:22.782Z,7.85
2023-04-12T01:57:23.310Z,7.6
2023-04-12T02:00:20.894Z,7.69
2023-04-12T02:03:17.589Z,7.82
2023-04-12T02:06:14.024Z,7.1
2023-04-12T02:09:09.590Z,6.76
2023-04-12T02:12:07.103Z,6.48
2023-04-12T02:15:03.726Z,6.53
2023-04-12T02:18:03.345Z,6.46
2023-04-12T02:21:00.795Z,6.36
2023-04-12T02:23:56.598Z,6.36
2023-04-12T02:26:55.933Z,6.27
2023-04-12T02:29:51.454Z,6.33
2023-04-12T02:35:52.621Z,6.26
2023-04-12T02:41:54.646Z,6.26
2023-04-12T02:44:50.230Z,6.28
2023-04-12T02:47:45.880Z,6.25
2023-04-12T02:50:41.310Z,6.25
2023-04-12T02:53:36.890Z,6.09
2023-04-12T02:56:35.459Z,6.17
2023-04-12T02:59:32.042Z,6.2
2023-04-12T03:02:27.710Z,6.11
2023-04-12T03:08:28.674Z,6.03
2023-04-12T03:14:29.783Z,6.06
2023-04-12T03:17:25.348Z,6.03
2023-04-12T03:20:23.897Z,5.94
2023-04-12T03:23:20.483Z,6.08
2023-04-12T03:26:20.012Z,5.94
2023-04-12T03:29:17.537Z,5.75
2023-04-12T03:32:13.076Z,5.6
2023-04-12T03:38:16.211Z,5.58
2023-04-12T03:41:11.746Z,5.67
2023-04-12T03:44:08.278Z,5.8
2023-04-12T03:47:03.907Z,5.75
2023-04-12T03:53:01.979Z,6.31
2023-04-12T03:55:57.540Z,6.66
2023-04-12T04:01:59.713Z,5.66
2023-04-12T04:04:55.259Z,5.73
2023-04-12T04:07:51.783Z,5.54
2023-04-12T04:10:47.348Z,5.54
2023-04-12T04:16:49.424Z,5.5
2023-04-12T04:19:44.975Z,5.58
2023-04-12T04:22:47.514Z,5.66
2023-04-12T04:25:47.072Z,5.95
2023-04-12T04:28:44.631Z,6.29
2023-04-12T04:31:46.317Z,6.21
2023-04-12T04:34:43.798Z,6.49
2023-04-12T04:37:41.299Z,6.39
2023-04-12T04:40:39.865Z,6.29
2023-04-12T04:43:39.432Z,6.16
2023-04-12T04:46:38.070Z,6.01
2023-04-12T04:49:33.532Z,6
2023-04-12T04:52:29.066Z,5.97
2023-04-12T04:55:29.665Z,6.04
2023-04-12T04:58:25.230Z,6.35
2023-04-12T05:01:25.870Z,6.06
2023-04-12T05:04:21.347Z,6.05
2023-04-12T05:07:17.839Z,6.16
2023-04-12T05:10:13.419Z,6.44
2023-04-12T05:13:09.997Z,6.33
2023-04-12T05:16:07.546Z,6.29
2023-04-12T05:19:03.119Z,6.43
2023-04-12T05:21:58.671Z,6.48
2023-04-12T05:24:54.249Z,6.58
2023-04-12T05:27:52.201Z,6.85
2023-04-12T05:30:47.402Z,6.83
2023-04-12T05:33:44.884Z,7.04
2023-04-12T05:36:40.484Z,7.04
2023-04-12T05:39:35.983Z,7.26
2023-04-12T05:45:38.152Z,7.67
2023-04-12T05:48:33.704Z,8
2023-04-12T05:51:40.419Z,8.07
2023-04-12T05:54:29.796Z,8.07
2023-04-12T05:57:26.346Z,8.19
2023-04-12T06:00:22.942Z,8.08
2023-04-12T06:03:19.567Z,8.25
2023-04-12T06:06:15.067Z,8.17
2023-04-12T06:09:10.579Z,8.27
2023-04-12T06:12:06.180Z,8.51
2023-04-12T06:15:01.742Z,8.73
2023-04-12T06:21:02.806Z,8.92
2023-04-12T06:23:58.356Z,9.14
2023-04-12T06:26:53.946Z,9.09
2023-04-12T06:32:55.025Z,9.33
2023-04-12T06:35:51.594Z,9.23
2023-04-12T06:38:51.210Z,9.56
2023-04-12T06:41:47.689Z,9.81
2023-04-12T06:44:43.220Z,10.09
2023-04-12T06:47:40.848Z,10.17
2023-04-12T06:50:39.388Z,10.03
2023-04-12T06:53:35.895Z,10.02
2023-04-12T06:56:36.453Z,10.18
2023-04-12T06:59:32.005Z,10.2
2023-04-12T07:02:27.671Z,10.38
2023-04-12T07:05:24.299Z,10.52
2023-04-12T07:08:19.708Z,10.88
2023-04-12T07:11:21.517Z,10.87
2023-04-12T07:14:17.033Z,11.15
2023-04-12T07:17:12.361Z,10.96
2023-04-12T07:20:09.986Z,11.2
2023-04-12T07:23:05.490Z,11.13
2023-04-12T07:29:07.776Z,10.91
2023-04-12T07:35:08.752Z,11.31
2023-04-12T07:38:04.245Z,11.07
2023-04-12T07:40:59.792Z,11.32
2023-04-12T07:43:56.494Z,11.82
2023-04-12T07:46:51.947Z,11.89
2023-04-12T07:49:47.501Z,11.56
2023-04-12T07:52:43.032Z,12.03
2023-04-12T07:55:38.614Z,12.19
2023-04-12T07:58:34.159Z,11.88
2023-04-12T08:01:30.754Z,11.87
2023-04-12T08:04:28.524Z,11.96
2023-04-12T08:07:23.835Z,12.45
2023-04-12T08:10:19.378Z,12.81
2023-04-12T08:13:15.981Z,12.67
2023-04-12T08:16:12.560Z,12.93
2023-04-12T08:19:08.088Z,12.74
2023-04-12T08:22:03.673Z,13.01
2023-04-12T08:24:59.239Z,12.8
2023-04-12T08:27:54.823Z,12.94
2023-04-12T08:30:51.399Z,12.87
2023-04-12T08:33:46.888Z,13.44
2023-04-12T08:36:42.474Z,13.4
2023-04-12T08:39:38.039Z,12.65
2023-04-12T08:42:37.604Z,13.4
2023-04-12T08:45:37.158Z,13.33
2023-04-12T08:48:35.719Z,13.12
2023-04-12T08:51:32.201Z,13.44
2023-04-12T08:54:28.772Z,13.75
2023-04-12T08:57:25.373Z,13.97
2023-04-12T09:00:21.916Z,13.09
2023-04-12T09:03:21.954Z,13.47
2023-04-12T09:06:18.039Z,13.91
2023-04-12T09:09:28.536Z,12.77
2023-04-12T09:12:30.110Z,13.06
2023-04-12T09:15:34.669Z,13.85
2023-04-12T09:18:41.146Z,14.37
2023-04-12T09:21:51.710Z,14.37
2023-04-12T09:24:49.280Z,14.61
2023-04-12T09:27:48.154Z,15.01
2023-04-12T09:30:44.344Z,14.83
2023-04-12T09:33:43.939Z,14.23
2023-04-12T09:36:44.485Z,14.36
2023-04-12T09:39:41.054Z,14.18
2023-04-12T09:42:43.587Z,14.93
2023-04-12T09:45:45.157Z,15.79
2023-04-12T09:48:49.711Z,14.61
2023-04-12T09:51:51.201Z,15
2023-04-12T09:54:47.756Z,16.06
2023-04-12T09:57:45.357Z,16.35
2023-04-12T10:00:44.891Z,16.71
2023-04-12T10:03:40.591Z,15.71
2023-04-12T10:06:36.983Z,14.88
2023-04-12T10:09:38.547Z,15.95
2023-04-12T10:12:36.097Z,14.9
2023-04-12T10:15:34.680Z,14.46
2023-04-12T10:18:31.214Z,15.33
2023-04-12T10:21:26.734Z,15.34
2023-04-12T10:24:23.336Z,16.01
2023-04-12T10:27:24.832Z,15.47
2023-04-12T10:30:22.486Z,15.84
2023-04-12T10:33:19.089Z,14.92
2023-04-12T10:36:27.534Z,15.81
2023-04-12T10:39:36.019Z,15.29
2023-04-12T10:42:41.610Z,15.71
2023-04-12T10:45:42.134Z,16.5
2023-04-12T10:48:38.677Z,17.13
2023-04-12T10:51:55.194Z,16.1
2023-04-12T10:55:08.741Z,17.16
2023-04-12T10:58:20.294Z,15.43
2023-04-12T11:01:27.918Z,15.86
2023-04-12T11:04:29.380Z,17.59
2023-04-12T11:07:32.876Z,18.38
2023-04-12T11:10:29.389Z,16.35
2023-04-12T11:13:28.028Z,17.25
2023-04-12T11:16:25.569Z,16.87
2023-04-12T11:19:23.073Z,18.39
2023-04-12T11:22:20.660Z,18.05
2023-04-12T11:25:18.194Z,17.42
2023-04-12T11:28:27.830Z,17.16
2023-04-12T11:31:22.359Z,18.23
2023-04-12T11:34:18.856Z,18.39
2023-04-12T11:37:14.384Z,16.79
2023-04-12T11:40:12.074Z,17.53
2023-04-12T11:43:07.474Z,17.76
2023-04-12T11:46:04.179Z,18.52
2023-04-12T11:49:00.657Z,18.84
2023-04-12T11:52:03.179Z,18.75
2023-04-12T11:55:00.714Z,19.08
2023-04-12T11:58:00.309Z,18.14
2023-04-12T12:00:57.825Z,18.2
2023-04-12T12:03:54.979Z,18.37
2023-04-12T12:06:51.354Z,18.84
2023-04-12T12:09:46.530Z,19.76
2023-04-12T12:12:45.116Z,19.6
2023-04-12T12:15:44.674Z,19.33
2023-04-12T12:18:41.182Z,17.94
2023-04-12T12:21:39.762Z,18.34
2023-04-12T12:24:39.800Z,19.06
2023-04-12T12:30:44.398Z,19.72
2023-04-12T12:33:46.338Z,19.93
2023-04-12T12:36:41.497Z,19.85
2023-04-12T12:39:40.107Z,19.64
2023-04-12T12:42:42.628Z,19.6
2023-04-12T12:45:40.149Z,20.78
2023-04-12T12:48:38.782Z,21.68
2023-04-12T12:51:34.228Z,22.11
2023-04-12T12:54:40.082Z,20.48
2023-04-12T12:57:31.375Z,21.21
2023-04-12T13:00:27.966Z,18.92
2023-04-12T13:03:23.710Z,20.07
2023-04-12T13:06:19.028Z,21.5
2023-04-12T13:09:14.576Z,21.44
2023-04-12T13:12:11.238Z,19.8
2023-04-12T13:21:14.786Z,21.03
2023-04-12T13:24:11.404Z,21.61
2023-04-12T13:27:18.111Z,21.83
2023-04-12T13:30:13.475Z,22.09
2023-04-12T13:33:09.153Z,22.35
2023-04-12T13:36:05.604Z,22.05
2023-04-12T13:39:01.146Z,22.06
2023-04-12T13:41:57.703Z,22.4
2023-04-12T13:44:53.249Z,22.52
2023-04-12T13:47:49.932Z,22.08
2023-04-12T13:50:45.889Z,22.46
2023-04-12T13:53:41.948Z,21.63
2023-04-12T13:56:37.521Z,22.12
2023-04-12T13:59:34.096Z,24.82
2023-04-12T14:02:31.326Z,22.57
2023-04-12T14:05:28.216Z,21.1
2023-04-12T14:08:23.746Z,21.77
2023-04-12T14:11:23.300Z,23.89
2023-04-12T14:14:18.885Z,21.78
2023-04-12T14:17:14.416Z,22.9
2023-04-12T14:20:09.996Z,23.01
2023-04-12T14:23:07.357Z,21.84
2023-04-12T14:26:03.100Z,22.36
2023-04-12T14:29:02.680Z,21.88
2023-04-12T14:31:58.193Z,24.05
2023-04-12T14:34:53.775Z,24.17
2023-04-12T14:37:49.343Z,23.83
2023-04-12T14:40:44.923Z,26.36
2023-04-12T14:43:40.462Z,23.89
2023-04-12T14:46:36.043Z,24.27
2023-04-12T14:49:33.445Z,25.04
2023-04-12T14:52:29.124Z,25.01
2023-04-12T14:55:25.697Z,27.27
2023-04-12T14:58:21.224Z,27.69
2023-04-12T15:01:17.847Z,30.64
2023-04-12T15:04:13.550Z,30.09
2023-04-12T15:07:13.935Z,30.36
2023-04-12T15:10:13.513Z,29.64
2023-04-12T15:13:08.993Z,26.96
2023-04-12T15:16:05.715Z,23.09
2023-04-12T15:19:06.923Z,24.62
2023-04-12T15:22:03.763Z,26.35
2023-04-12T15:25:02.284Z,28.3
2023-04-12T15:27:57.826Z,29.38
2023-04-12T15:30:56.389Z,27.44
2023-04-12T15:33:51.963Z,24.72
2023-04-12T15:36:49.602Z,24.66
2023-04-12T15:39:46.073Z,24.85
2023-04-12T15:42:43.624Z,25.34
2023-04-12T15:45:44.204Z,24.5
2023-04-12T15:48:39.725Z,24.91
2023-04-12T15:51:35.271Z,23.08
2023-04-12T15:54:31.842Z,23.51
2023-04-12T15:57:27.421Z,21.46
2023-04-12T16:00:26.035Z,21.78
2023-04-12T16:03:27.006Z,22.88
2023-04-12T16:06:25.092Z,22.7
2023-04-12T16:09:22.615Z,23.47
2023-04-12T16:12:20.198Z,22.4
2023-04-12T16:15:16.723Z,23.38
2023-04-12T16:18:12.351Z,24.4
2023-04-12T16:21:09.842Z,23.48
2023-04-12T16:24:06.423Z,23.79
2023-04-12T16:27:02.006Z,23.13
2023-04-12T16:29:59.534Z,22.03
2023-04-12T16:32:55.125Z,20.5
2023-04-12T16:35:56.647Z,20.58
2023-04-12T16:38:55.564Z,21.31
2023-04-12T16:41:51.762Z,20.39
2023-04-12T16:44:48.273Z,19.34
2023-04-12T16:47:45.950Z,19.08
2023-04-12T16:50:47.469Z,18.47
2023-04-12T16:53:44.992Z,18.6
2023-04-12T16:56:41.545Z,18.74
2023-04-12T16:59:42.103Z,18.35
2023-04-12T17:02:40.830Z,17.92
2023-04-12T17:05:38.187Z,17.3
2023-04-12T17:08:37.726Z,17.26
2023-04-12T17:11:36.290Z,17.54
2023-04-12T17:14:32.883Z,17.41
2023-04-12T17:17:29.413Z,17.35
2023-04-12T17:20:26.954Z,16.95
2023-04-12T17:23:24.523Z,16.6
2023-04-12T17:26:25.091Z,16.27
2023-04-12T17:32:29.286Z,15.81
2023-04-12T17:35:27.721Z,15.55
2023-04-12T17:38:23.282Z,15.52
2023-04-12T17:41:23.807Z,15.29
2023-04-12T17:44:19.389Z,15.19
2023-04-12T17:47:15.939Z,15.13
2023-04-12T17:50:12.550Z,15.02
2023-04-12T17:53:08.061Z,14.66
2023-04-12T17:56:05.669Z,14.55
2023-04-12T17:59:02.201Z,14.44
2023-04-12T18:01:59.857Z,14.23
2023-04-12T18:04:55.313Z,14.44
2023-04-12T18:07:50.863Z,14.72
2023-04-12T18:10:48.376Z,14.37
2023-04-12T18:13:43.995Z,14.08
2023-04-12T18:16:40.550Z,14.08
2023-04-12T18:19:37.080Z,13.54
2023-04-12T18:22:32.665Z,13.5
2023-04-12T18:25:28.197Z,13.47
2023-04-12T18:28:24.806Z,13.44
2023-04-12T18:31:22.414Z,13.29
2023-04-12T18:34:18.886Z,13.18
2023-04-12T18:37:15.453Z,13.04
2023-04-12T18:40:13.041Z,12.96
2023-04-12T18:43:08.593Z,12.92
2023-04-12T18:46:05.206Z,13
2023-04-12T18:49:03.671Z,12.79
2023-04-12T18:51:59.254Z,12.72
2023-04-12T18:54:54.800Z,12.65
2023-04-12T18:57:50.342Z,12.43
2023-04-12T19:00:46.008Z,12.43
2023-04-12T19:03:42.540Z,12.38
2023-04-12T19:06:38.261Z,12.39
2023-04-12T19:09:35.613Z,12.42
2023-04-12T19:12:32.188Z,12.17
2023-04-12T19:15:28.736Z,12.16
2023-04-12T19:18:26.336Z,12.04
2023-04-12T19:21:21.845Z,12.47
2023-04-12T19:24:17.443Z,12.8
2023-04-12T19:27:17.916Z,12.41
2023-04-12T19:30:14.503Z,11.47
2023-04-12T19:33:11.048Z,11.42
2023-04-12T19:36:08.653Z,11.53
2023-04-12T19:39:05.146Z,11.15
2023-04-12T19:42:02.770Z,11.09
2023-04-12T19:45:00.310Z,10.93
2023-04-12T19:47:56.906Z,10.81
2023-04-12T19:50:54.424Z,10.52
2023-04-12T19:53:53.966Z,10.51
2023-04-12T19:56:49.536Z,10.43
2023-04-12T19:59:46.106Z,10.62
2023-04-12T20:02:42.665Z,10.62
2023-04-12T20:05:42.188Z,10.57
2023-04-12T20:08:38.769Z,10.26
2023-04-12T20:11:35.366Z,10.4
2023-04-12T20:14:34.854Z,10.02
2023-04-12T20:17:31.490Z,10.19
2023-04-12T20:20:26.994Z,9.94
2023-04-12T20:23:24.545Z,9.79
2023-04-12T20:26:21.122Z,9.96
2023-04-12T20:29:17.690Z,9.88
2023-04-12T20:32:14.249Z,9.58
2023-04-12T20:35:11.798Z,9.67
2023-04-12T20:38:07.326Z,9.58
2023-04-12T20:41:04.911Z,9.67
2023-04-12T20:44:01.542Z,9.54
2023-04-12T20:46:59.070Z,9.58
2023-04-12T20:49:59.560Z,9.64
2023-04-12T20:52:56.140Z,9.68
2023-04-12T20:55:54.696Z,9.56
2023-04-12T20:58:52.197Z,9.35
2023-04-12T21:01:49.010Z,9.4
2023-04-12T21:04:46.430Z,9.45
2023-04-12T21:07:42.882Z,9.51
2023-04-12T21:10:40.449Z,9.6
2023-04-12T21:13:36.001Z,9.74
2023-04-12T21:16:33.639Z,9.17
2023-04-12T21:19:30.150Z,9.12
2023-04-12T21:22:26.749Z,9.17
2023-04-12T21:25:22.264Z,9.24
2023-04-12T21:28:20.811Z,9.72
2023-04-12T21:31:18.386Z,9.61
2023-04-12T21:34:13.931Z,9.31
2023-04-12T21:37:10.469Z,9.62
2023-04-12T21:40:09.067Z,9.79
2023-04-12T21:43:07.578Z,9.89
2023-04-12T21:46:03.180Z,9.58
2023-04-12T21:48:59.974Z,10.22
2023-04-12T21:51:59.321Z,10.46
2023-04-12T21:54:55.876Z,10.55
2023-04-12T21:57:52.379Z,10.68
2023-04-12T22:00:49.983Z,10.56
2023-04-12T22:03:46.609Z,10.32
2023-04-12T22:06:44.057Z,9.68
2023-04-12T22:09:39.619Z,9.29
2023-04-12T22:12:40.172Z,9.24
2023-04-12T22:15:36.728Z,9.16
2023-04-12T22:18:34.293Z,9.85
2023-04-12T22:21:32.854Z,10.35
2023-04-12T22:24:30.387Z,12.14
2023-04-12T22:27:29.933Z,12.15
2023-04-12T22:30:25.501Z,12.49
2023-04-12T22:33:22.061Z,11.88
2023-04-12T22:36:18.626Z,11.22
2023-04-12T22:39:15.188Z,10.4
2023-04-12T22:42:20.742Z,9.65
2023-04-12T22:45:17.284Z,10.17
2023-04-12T22:48:14.833Z,10.65
2023-04-12T22:51:10.367Z,10.2
2023-04-12T22:54:08.947Z,9.34
2023-04-12T22:57:05.503Z,8.72
2023-04-12T23:00:01.064Z,8.38
2023-04-12T23:02:56.658Z,8.53
2023-04-12T23:05:55.200Z,8.78
2023-04-12T23:08:51.741Z,8.68
2023-04-12T23:11:48.303Z,8.97
2023-04-12T23:14:45.867Z,8.93
2023-04-12T23:17:42.488Z,9.3
2023-04-12T23:20:44.971Z,8.53
2023-04-12T23:23:42.505Z,8.24
2023-04-12T23:26:38.036Z,8.32
2023-04-12T23:29:34.642Z,8.4
2023-04-12T23:32:31.261Z,8.21
2023-04-12T23:35:26.735Z,8.25
2023-04-12T23:38:31.285Z,8.34
2023-04-12T23:41:27.882Z,8.11
2023-04-12T23:44:27.393Z,7.79
2023-04-12T23:47:23.948Z,7.81
2023-04-12T23:50:20.539Z,7.73
2023-04-12T23:53:17.039Z,7.7
2023-04-12T23:56:13.633Z,7.78
2023-04-12T23:59:09.225Z,7.9
